createdAt,value
2018-11-27T00:00:23.319Z,88.01
2018-11-27T00:01:23.530Z,87.91
2018-11-27T00:02:23.564Z,88.01
2018-11-27T00:03:23.759Z,87.91
2018-11-27T00:04:23.777Z,88.01
2018-11-27T00:05:23.906Z,87.91
2018-11-27T00:06:24.076Z,88.01
2018-11-27T00:07:24.217Z,88.20
2018-11-27T00:08:24.346Z,88.29
2018-11-27T00:09:24.474Z,88.20
2018-11-27T00:10:24.638Z,87.53
2018-11-27T00:11:24.764Z,87.82
2018-11-27T00:12:24.899Z,88.01
2018-11-27T00:13:25.034Z,87.91
2018-11-27T00:14:25.164Z,87.72
2018-11-27T00:15:25.287Z,87.82
2018-11-27T00:16:25.417Z,87.43
2018-11-27T00:17:25.547Z,87.34
2018-11-27T00:18:25.732Z,87.34
2018-11-27T00:19:25.850Z,87.15
2018-11-27T00:20:25.978Z,87.05
2018-11-27T00:21:26.115Z,86.77
2018-11-27T00:22:26.265Z,87.05
2018-11-27T00:23:26.389Z,86.77
2018-11-27T00:24:26.525Z,86.68
2018-11-27T00:25:26.654Z,86.49
2018-11-27T00:26:27.714Z,86.72
2018-11-27T00:27:26.932Z,86.77
2018-11-27T00:28:27.060Z,86.77
2018-11-27T00:29:27.208Z,86.68
2018-11-27T00:30:27.341Z,86.11
2018-11-27T00:31:27.471Z,86.11
2018-11-27T00:32:27.619Z,86.20
2018-11-27T00:33:27.745Z,86.20
2018-11-27T00:34:27.875Z,86.01
2018-11-27T00:35:28.017Z,86.01
2018-11-27T00:36:28.176Z,85.53
2018-11-27T00:37:28.307Z,85.35
2018-11-27T00:38:28.436Z,85.72
2018-11-27T00:39:28.564Z,85.91
2018-11-27T00:40:28.705Z,85.35
2018-11-27T00:41:28.827Z,85.06
2018-11-27T00:42:28.955Z,85.35
2018-11-27T00:43:29.089Z,85.06
2018-11-27T00:44:29.245Z,85.16
2018-11-27T00:45:29.367Z,85.16
2018-11-27T00:46:29.500Z,85.25
2018-11-27T00:47:29.635Z,85.44
2018-11-27T00:48:29.798Z,84.78
2018-11-27T00:49:29.932Z,85.25
2018-11-27T00:50:30.060Z,85.35
2018-11-27T00:51:30.190Z,84.68
2018-11-27T00:52:30.360Z,85.16
2018-11-27T00:53:30.470Z,84.30
2018-11-27T00:54:30.594Z,84.87
2018-11-27T00:55:30.733Z,84.78
2018-11-27T00:56:30.909Z,84.78
2018-11-27T00:57:31.030Z,84.87
2018-11-27T00:58:31.161Z,84.87
2018-11-27T00:59:31.289Z,84.78
2018-11-27T01:00:31.464Z,84.87
2018-11-27T01:01:31.589Z,84.40
2018-11-27T01:02:31.722Z,84.11
2018-11-27T01:03:31.846Z,84.30
2018-11-27T01:04:31.991Z,84.40
2018-11-27T01:05:32.125Z,84.40
2018-11-27T01:06:32.258Z,84.30
2018-11-27T01:07:32.386Z,84.30
2018-11-27T01:08:32.524Z,84.01
2018-11-27T01:09:32.645Z,84.01
2018-11-27T01:10:32.774Z,84.01
2018-11-27T01:11:32.904Z,83.54
2018-11-27T01:12:33.045Z,83.45
2018-11-27T01:13:33.175Z,83.36
2018-11-27T01:14:33.300Z,83.64
2018-11-27T01:15:33.475Z,83.54
2018-11-27T01:16:33.611Z,83.07
2018-11-27T01:17:33.728Z,83.07
2018-11-27T01:18:33.861Z,83.16
2018-11-27T01:19:33.991Z,82.97
2018-11-27T01:20:34.155Z,83.26
2018-11-27T01:21:34.260Z,83.07
2018-11-27T01:22:34.393Z,83.16
2018-11-27T01:23:34.529Z,83.36
2018-11-27T01:24:34.691Z,83.16
2018-11-27T01:25:34.816Z,83.54
2018-11-27T01:26:34.947Z,83.07
2018-11-27T01:27:35.110Z,82.78
2018-11-27T01:28:35.236Z,82.69
2018-11-27T01:29:35.375Z,82.97
2018-11-27T01:30:35.501Z,82.88
2018-11-27T01:31:35.645Z,82.97
2018-11-27T01:32:35.771Z,83.16
2018-11-27T01:33:35.902Z,83.36
2018-11-27T01:34:36.030Z,83.07
2018-11-27T01:35:36.193Z,83.16
2018-11-27T01:36:36.319Z,82.78
2018-11-27T01:37:36.447Z,82.97
2018-11-27T01:38:36.575Z,82.97
2018-11-27T01:39:36.736Z,83.26
2018-11-27T01:40:36.878Z,83.16
2018-11-27T01:41:37.009Z,82.97
2018-11-27T01:42:37.146Z,82.97
2018-11-27T01:43:37.310Z,83.07
2018-11-27T01:44:37.520Z,83.07
2018-11-27T01:45:37.525Z,83.07
2018-11-27T01:46:37.662Z,83.07
2018-11-27T01:47:37.821Z,82.78
2018-11-27T01:48:37.947Z,82.97
2018-11-27T01:49:38.077Z,82.88
2018-11-27T01:50:38.203Z,82.69
2018-11-27T01:51:38.354Z,82.88
2018-11-27T01:52:38.479Z,82.88
2018-11-27T01:53:38.612Z,83.07
2018-11-27T01:54:38.743Z,83.16
2018-11-27T01:55:38.909Z,82.78
2018-11-27T01:56:39.002Z,82.40
2018-11-27T01:57:39.135Z,82.78
2018-11-27T01:58:39.260Z,82.69
2018-11-27T01:59:39.407Z,82.88
2018-11-27T02:00:39.531Z,82.78
2018-11-27T02:01:39.657Z,83.16
2018-11-27T02:02:39.789Z,83.16
2018-11-27T02:03:39.943Z,82.97
2018-11-27T02:04:40.066Z,83.16
2018-11-27T02:05:40.192Z,83.26
2018-11-27T02:06:40.325Z,82.97
2018-11-27T02:07:40.485Z,82.97
2018-11-27T02:08:40.612Z,82.78
2018-11-27T02:09:40.743Z,82.88
2018-11-27T02:10:40.880Z,82.78
2018-11-27T02:11:41.047Z,83.03
2018-11-27T02:12:41.194Z,82.78
2018-11-27T02:13:41.902Z,83.16
2018-11-27T02:14:41.422Z,83.07
2018-11-27T02:15:41.622Z,83.07
2018-11-27T02:16:41.627Z,82.97
2018-11-27T02:17:41.757Z,83.07
2018-11-27T02:18:41.897Z,82.88
2018-11-27T02:19:42.021Z,82.69
2018-11-27T02:20:42.151Z,83.07
2018-11-27T02:21:42.282Z,82.97
2018-11-27T02:22:42.425Z,82.69
2018-11-27T02:23:42.554Z,82.88
2018-11-27T02:24:42.680Z,82.69
2018-11-27T02:25:42.825Z,82.88
2018-11-27T02:26:43.025Z,83.07
2018-11-27T02:27:43.086Z,82.97
2018-11-27T02:28:43.215Z,82.40
2018-11-27T02:29:43.364Z,83.07
2018-11-27T02:30:43.538Z,82.69
2018-11-27T02:31:43.666Z,82.40
2018-11-27T02:32:43.795Z,82.40
2018-11-27T02:33:43.950Z,82.59
2018-11-27T02:34:44.078Z,82.31
2018-11-27T02:35:44.205Z,82.59
2018-11-27T02:36:44.340Z,82.69
2018-11-27T02:37:44.483Z,82.88
2018-11-27T02:38:44.608Z,82.78
2018-11-27T02:39:44.732Z,83.16
2018-11-27T02:40:44.871Z,82.97
2018-11-27T02:41:45.000Z,82.88
2018-11-27T02:42:45.124Z,82.50
2018-11-27T02:43:45.291Z,82.40
2018-11-27T02:44:45.424Z,82.88
2018-11-27T02:45:45.548Z,82.03
2018-11-27T02:46:45.762Z,82.21
2018-11-27T02:47:45.761Z,82.97
2018-11-27T02:48:45.887Z,82.69
2018-11-27T02:49:46.019Z,82.40
2018-11-27T02:50:46.148Z,82.69
2018-11-27T02:51:46.303Z,82.03
2018-11-27T02:52:46.429Z,82.03
2018-11-27T02:53:46.557Z,82.21
2018-11-27T02:54:46.683Z,82.21
2018-11-27T02:55:46.817Z,82.08
2018-11-27T02:56:46.961Z,82.31
2018-11-27T02:57:47.087Z,82.03
2018-11-27T02:58:47.215Z,82.12
2018-11-27T02:59:47.344Z,81.74
2018-11-27T03:00:47.475Z,82.31
2018-11-27T03:01:47.604Z,82.21
2018-11-27T03:02:47.734Z,82.03
2018-11-27T03:03:47.870Z,82.12
2018-11-27T03:04:47.997Z,82.03
2018-11-27T03:05:48.127Z,82.03
2018-11-27T03:06:48.250Z,82.12
2018-11-27T03:07:48.380Z,82.03
2018-11-27T03:08:48.509Z,81.74
2018-11-27T03:09:48.638Z,82.21
2018-11-27T03:10:48.762Z,82.12
2018-11-27T03:11:48.898Z,82.03
2018-11-27T03:12:49.027Z,81.93
2018-11-27T03:13:49.158Z,81.93
2018-11-27T03:14:49.288Z,81.84
2018-11-27T03:15:49.446Z,82.12
2018-11-27T03:16:49.582Z,82.12
2018-11-27T03:17:49.708Z,82.03
2018-11-27T03:18:49.835Z,81.93
2018-11-27T03:19:49.967Z,81.84
2018-11-27T03:20:50.095Z,81.93
2018-11-27T03:21:50.264Z,82.12
2018-11-27T03:22:50.383Z,82.12
2018-11-27T03:23:50.515Z,82.03
2018-11-27T03:24:50.645Z,81.84
2018-11-27T03:25:50.780Z,81.93
2018-11-27T03:26:50.907Z,82.03
2018-11-27T03:27:51.034Z,81.84
2018-11-27T03:28:51.168Z,81.93
2018-11-27T03:29:51.296Z,81.55
2018-11-27T03:30:51.456Z,81.55
2018-11-27T03:31:51.585Z,81.65
2018-11-27T03:32:51.800Z,81.07
2018-11-27T03:33:51.838Z,80.88
2018-11-27T03:34:52.009Z,81.07
2018-11-27T03:35:52.134Z,81.17
2018-11-27T03:36:52.267Z,81.26
2018-11-27T03:37:52.395Z,81.45
2018-11-27T03:38:52.539Z,81.17
2018-11-27T03:39:52.734Z,81.36
2018-11-27T03:40:52.746Z,80.98
2018-11-27T03:41:52.875Z,81.26
2018-11-27T03:42:53.026Z,81.41
2018-11-27T03:43:53.148Z,81.98
2018-11-27T03:44:53.279Z,82.36
2018-11-27T03:45:53.412Z,82.74
2018-11-27T03:46:53.561Z,82.31
2018-11-27T03:47:53.695Z,82.31
2018-11-27T03:48:53.816Z,82.69
2018-11-27T03:49:53.950Z,82.40
2018-11-27T03:50:54.089Z,82.55
2018-11-27T03:51:54.249Z,82.93
2018-11-27T03:52:54.417Z,82.74
2018-11-27T03:53:54.513Z,82.27
2018-11-27T03:54:54.668Z,82.65
2018-11-27T03:55:54.795Z,82.03
2018-11-27T03:56:54.923Z,82.78
2018-11-27T03:57:55.060Z,82.50
2018-11-27T03:58:55.196Z,81.93
2018-11-27T03:59:55.353Z,81.74
2018-11-27T04:00:55.491Z,81.84
2018-11-27T04:01:55.613Z,81.74
2018-11-27T04:02:55.832Z,82.03
2018-11-27T04:03:55.892Z,81.93
2018-11-27T04:04:56.025Z,82.12
2018-11-27T04:05:56.153Z,81.84
2018-11-27T04:06:56.316Z,81.93
2018-11-27T04:07:56.440Z,81.84
2018-11-27T04:08:56.565Z,81.93
2018-11-27T04:09:56.697Z,81.93
2018-11-27T04:10:56.882Z,81.93
2018-11-27T04:11:57.023Z,81.93
2018-11-27T04:12:57.155Z,82.12
2018-11-27T04:13:57.290Z,81.45
2018-11-27T04:14:57.531Z,81.65
2018-11-27T04:15:57.537Z,81.55
2018-11-27T04:16:57.658Z,82.12
2018-11-27T04:17:57.787Z,81.84
2018-11-27T04:18:57.935Z,81.45
2018-11-27T04:19:58.063Z,81.65
2018-11-27T04:20:58.191Z,81.65
2018-11-27T04:21:58.318Z,80.88
2018-11-27T04:22:58.500Z,81.17
2018-11-27T04:23:58.622Z,81.36
2018-11-27T04:24:58.753Z,80.98
2018-11-27T04:25:58.881Z,81.07
2018-11-27T04:26:59.012Z,80.98
2018-11-27T04:27:59.136Z,81.17
2018-11-27T04:28:59.285Z,80.98
2018-11-27T04:29:59.412Z,81.36
2018-11-27T04:30:59.541Z,81.17
2018-11-27T04:31:59.748Z,80.98
2018-11-27T04:32:59.758Z,81.26
2018-11-27T04:33:59.886Z,81.55
2018-11-27T04:35:00.032Z,81.17
2018-11-27T04:36:00.157Z,80.98
2018-11-27T04:37:00.287Z,81.41
2018-11-27T04:38:00.421Z,81.17
2018-11-27T04:39:00.542Z,80.88
2018-11-27T04:40:00.672Z,81.17
2018-11-27T04:41:00.818Z,80.98
2018-11-27T04:42:00.939Z,80.88
2018-11-27T04:43:01.067Z,80.88
2018-11-27T04:44:01.202Z,81.07
2018-11-27T04:45:01.335Z,81.17
2018-11-27T04:46:01.463Z,81.07
2018-11-27T04:47:01.593Z,81.17
2018-11-27T04:48:01.727Z,81.13
2018-11-27T04:49:01.870Z,80.98
2018-11-27T04:50:02.010Z,80.41
2018-11-27T04:51:02.141Z,80.84
2018-11-27T04:52:02.277Z,80.75
2018-11-27T04:53:02.408Z,80.94
2018-11-27T04:54:02.555Z,80.75
2018-11-27T04:55:02.679Z,80.46
2018-11-27T04:56:02.817Z,80.46
2018-11-27T04:57:02.935Z,80.27
2018-11-27T04:58:03.083Z,80.27
2018-11-27T04:59:03.205Z,80.37
2018-11-27T05:00:03.333Z,80.37
2018-11-27T05:01:03.462Z,80.27
2018-11-27T05:02:03.591Z,80.27
2018-11-27T05:03:03.738Z,80.37
2018-11-27T05:04:03.869Z,80.46
2018-11-27T05:05:03.997Z,80.18
2018-11-27T05:06:04.151Z,80.46
2018-11-27T05:07:04.278Z,80.37
2018-11-27T05:08:04.409Z,80.84
2018-11-27T05:09:04.543Z,81.13
2018-11-27T05:10:04.702Z,81.13
2018-11-27T05:11:04.829Z,81.04
2018-11-27T05:12:04.959Z,81.32
2018-11-27T05:13:05.090Z,80.46
2018-11-27T05:14:05.232Z,81.13
2018-11-27T05:15:05.888Z,80.75
2018-11-27T05:16:05.547Z,80.84
2018-11-27T05:17:05.670Z,81.04
2018-11-27T05:18:05.798Z,81.13
2018-11-27T05:19:05.928Z,80.37
2018-11-27T05:20:06.063Z,80.84
2018-11-27T05:21:06.216Z,80.56
2018-11-27T05:22:06.342Z,80.65
2018-11-27T05:23:06.471Z,80.46
2018-11-27T05:24:06.603Z,81.23
2018-11-27T05:25:06.734Z,80.84
2018-11-27T05:26:06.867Z,81.23
2018-11-27T05:27:06.997Z,80.94
2018-11-27T05:28:07.128Z,80.94
2018-11-27T05:29:07.255Z,80.46
2018-11-27T05:30:07.400Z,81.04
2018-11-27T05:31:07.522Z,81.13
2018-11-27T05:32:07.654Z,80.94
2018-11-27T05:33:07.781Z,80.84
2018-11-27T05:34:07.946Z,80.94
2018-11-27T05:35:08.070Z,81.23
2018-11-27T05:36:08.198Z,80.37
2018-11-27T05:37:08.329Z,80.84
2018-11-27T05:38:08.459Z,80.46
2018-11-27T05:39:08.593Z,80.27
2018-11-27T05:40:08.751Z,80.56
2018-11-27T05:41:08.885Z,80.27
2018-11-27T05:42:09.014Z,80.65
2018-11-27T05:43:09.145Z,80.27
2018-11-27T05:44:09.387Z,80.65
2018-11-27T05:45:09.446Z,80.75
2018-11-27T05:46:09.579Z,80.37
2018-11-27T05:47:09.738Z,80.65
2018-11-27T05:48:09.865Z,80.56
2018-11-27T05:49:10.003Z,80.27
2018-11-27T05:50:10.128Z,80.46
2018-11-27T05:51:10.258Z,79.80
2018-11-27T05:52:10.386Z,80.46
2018-11-27T05:53:10.541Z,80.43
2018-11-27T05:54:10.670Z,80.84
2018-11-27T05:55:10.796Z,80.75
2018-11-27T05:56:10.938Z,80.56
2018-11-27T05:57:11.091Z,80.65
2018-11-27T05:58:11.214Z,80.27
2018-11-27T05:59:11.348Z,80.04
2018-11-27T06:00:11.494Z,80.33
2018-11-27T06:01:11.642Z,80.33
2018-11-27T06:02:11.773Z,80.04
2018-11-27T06:03:11.931Z,79.76
2018-11-27T06:04:12.057Z,79.66
2018-11-27T06:05:12.213Z,79.95
2018-11-27T06:06:12.336Z,79.85
2018-11-27T06:07:12.466Z,79.42
2018-11-27T06:08:12.617Z,79.61
2018-11-27T06:09:12.748Z,79.04
2018-11-27T06:10:12.878Z,79.14
2018-11-27T06:11:13.027Z,78.66
2018-11-27T06:12:13.150Z,78.95
2018-11-27T06:13:13.304Z,78.56
2018-11-27T06:14:13.431Z,78.62
2018-11-27T06:15:13.579Z,78.75
2018-11-27T06:16:13.713Z,78.66
2018-11-27T06:17:13.841Z,78.66
2018-11-27T06:18:13.970Z,79.00
2018-11-27T06:19:14.145Z,79.47
2018-11-27T06:20:14.271Z,79.85
2018-11-27T06:21:14.401Z,80.04
2018-11-27T06:22:14.526Z,80.43
2018-11-27T06:23:14.677Z,80.71
2018-11-27T06:24:14.806Z,79.85
2018-11-27T06:25:14.957Z,80.52
2018-11-27T06:26:15.064Z,80.24
2018-11-27T06:27:15.199Z,81.27
2018-11-27T06:28:15.323Z,80.52
2018-11-27T06:29:15.462Z,80.62
2018-11-27T06:30:15.586Z,80.80
2018-11-27T06:31:15.716Z,80.24
2018-11-27T06:32:21.281Z,80.04
2018-11-27T06:33:15.975Z,79.85
2018-11-27T06:34:16.102Z,80.14
2018-11-27T06:35:16.231Z,80.62
2018-11-27T06:36:16.364Z,80.33
2018-11-27T06:37:16.490Z,80.14
2018-11-27T06:38:16.617Z,80.75
2018-11-27T06:39:16.754Z,80.08
2018-11-27T06:40:16.883Z,80.18
2018-11-27T06:41:17.006Z,79.71
2018-11-27T06:42:17.173Z,79.47
2018-11-27T06:43:17.330Z,79.42
2018-11-27T06:44:17.499Z,78.56
2018-11-27T06:45:18.580Z,79.19
2018-11-27T06:46:17.740Z,79.10
2018-11-27T06:47:17.868Z,79.71
2018-11-27T06:48:17.998Z,79.19
2018-11-27T06:49:18.139Z,78.62
2018-11-27T06:50:18.266Z,79.19
2018-11-27T06:51:18.410Z,78.53
2018-11-27T06:52:18.540Z,78.62
2018-11-27T06:53:18.700Z,78.62
2018-11-27T06:54:18.805Z,79.19
2018-11-27T06:55:18.933Z,79.10
2018-11-27T06:56:19.064Z,79.66
2018-11-27T06:57:19.201Z,79.57
2018-11-27T06:58:19.335Z,79.85
2018-11-27T06:59:19.491Z,79.66
2018-11-27T07:00:19.617Z,79.85
2018-11-27T07:01:19.745Z,79.95
2018-11-27T07:02:19.881Z,79.76
2018-11-27T07:03:20.025Z,79.76
2018-11-27T07:04:20.137Z,80.24
2018-11-27T07:05:20.264Z,79.76
2018-11-27T07:06:20.400Z,80.52
2018-11-27T07:07:20.525Z,80.52
2018-11-27T07:08:20.653Z,80.04
2018-11-27T07:09:20.783Z,80.62
2018-11-27T07:10:20.913Z,80.62
2018-11-27T07:11:21.045Z,80.29
2018-11-27T07:12:21.170Z,80.90
2018-11-27T07:13:21.300Z,81.27
2018-11-27T07:14:21.426Z,80.71
2018-11-27T07:15:21.555Z,80.48
2018-11-27T07:16:21.692Z,80.90
2018-11-27T07:17:21.819Z,80.80
2018-11-27T07:18:21.947Z,81.18
2018-11-27T07:19:22.075Z,80.95
2018-11-27T07:20:22.232Z,80.90
2018-11-27T07:21:22.361Z,81.66
2018-11-27T07:22:22.489Z,81.09
2018-11-27T07:23:22.615Z,80.99
2018-11-27T07:24:22.750Z,80.86
2018-11-27T07:25:22.872Z,81.05
2018-11-27T07:26:23.000Z,81.18
2018-11-27T07:27:23.135Z,81.09
2018-11-27T07:28:24.084Z,81.37
2018-11-27T07:29:23.388Z,81.05
2018-11-27T07:30:23.551Z,81.27
2018-11-27T07:31:23.635Z,81.37
2018-11-27T07:32:23.790Z,80.71
2018-11-27T07:33:23.913Z,81.37
2018-11-27T07:34:24.043Z,80.90
2018-11-27T07:35:24.167Z,80.90
2018-11-27T07:36:24.298Z,81.37
2018-11-27T07:37:24.426Z,80.24
2018-11-27T07:38:24.560Z,80.14
2018-11-27T07:39:24.731Z,80.24
2018-11-27T07:40:24.857Z,80.24
2018-11-27T07:41:25.122Z,80.62
2018-11-27T07:42:25.078Z,81.18
2018-11-27T07:43:25.278Z,80.86
2018-11-27T07:44:25.387Z,80.67
2018-11-27T07:45:27.488Z,81.33
2018-11-27T07:46:25.891Z,81.18
2018-11-27T07:47:25.789Z,81.62
2018-11-27T07:48:26.002Z,81.99
2018-11-27T07:49:25.999Z,82.18
2018-11-27T07:50:26.135Z,83.04
2018-11-27T07:51:26.261Z,83.13
2018-11-27T07:52:26.391Z,82.47
2018-11-27T07:53:26.534Z,82.28
2018-11-27T07:54:26.657Z,82.18
2018-11-27T07:55:27.167Z,82.51
2018-11-27T07:56:26.967Z,82.79
2018-11-27T07:57:27.085Z,81.94
2018-11-27T07:58:27.213Z,81.99
2018-11-27T07:59:27.342Z,81.71
2018-11-27T08:00:27.517Z,82.47
2018-11-27T08:01:27.640Z,82.66
2018-11-27T08:02:27.767Z,82.09
2018-11-27T08:03:27.897Z,82.37
2018-11-27T08:04:28.044Z,82.09
2018-11-27T08:05:28.176Z,81.99
2018-11-27T08:06:28.306Z,81.71
2018-11-27T08:07:28.429Z,81.81
2018-11-27T08:08:28.599Z,80.95
2018-11-27T08:09:28.724Z,81.27
2018-11-27T08:10:28.847Z,80.90
2018-11-27T08:11:28.976Z,80.80
2018-11-27T08:12:29.158Z,81.09
2018-11-27T08:13:29.281Z,80.52
2018-11-27T08:14:29.472Z,80.24
2018-11-27T08:15:29.472Z,80.43
2018-11-27T08:16:29.628Z,80.52
2018-11-27T08:17:29.817Z,81.18
2018-11-27T08:18:30.416Z,80.62
2018-11-27T08:19:29.946Z,80.33
2018-11-27T08:20:30.109Z,80.52
2018-11-27T08:21:30.233Z,79.95
2018-11-27T08:22:30.364Z,80.14
2018-11-27T08:23:30.493Z,80.14
2018-11-27T08:24:30.646Z,79.66
2018-11-27T08:25:30.774Z,79.76
2018-11-27T08:26:30.902Z,80.14
2018-11-27T08:27:31.031Z,79.66
2018-11-27T08:28:31.196Z,80.04
2018-11-27T08:29:31.433Z,79.66
2018-11-27T08:30:31.439Z,79.76
2018-11-27T08:31:32.415Z,79.61
2018-11-27T08:32:31.703Z,79.28
2018-11-27T08:33:31.837Z,79.33
2018-11-27T08:34:31.959Z,79.33
2018-11-27T08:35:32.093Z,78.38
2018-11-27T08:36:32.228Z,78.66
2018-11-27T08:37:32.363Z,78.38
2018-11-27T08:38:32.490Z,78.95
2018-11-27T08:39:32.645Z,79.14
2018-11-27T08:40:32.772Z,79.14
2018-11-27T08:41:40.417Z,79.23
2018-11-27T08:42:33.027Z,79.33
2018-11-27T08:43:33.178Z,79.71
2018-11-27T08:44:33.301Z,79.90
2018-11-27T08:45:33.431Z,79.33
2018-11-27T08:46:33.561Z,78.47
2018-11-27T08:47:33.707Z,78.19
2018-11-27T08:48:35.077Z,78.09
2018-11-27T08:49:33.974Z,77.81
2018-11-27T08:50:34.102Z,77.71
2018-11-27T08:51:34.248Z,78.09
2018-11-27T08:52:34.383Z,78.00
2018-11-27T08:53:34.515Z,78.24
2018-11-27T08:54:34.643Z,78.34
2018-11-27T08:55:34.792Z,78.53
2018-11-27T08:56:34.992Z,78.72
2018-11-27T08:57:34.994Z,78.43
2018-11-27T08:58:36.185Z,78.43
2018-11-27T08:59:35.286Z,78.62
2018-11-27T09:00:35.413Z,78.43
2018-11-27T09:01:35.543Z,78.62
2018-11-27T09:02:35.675Z,78.62
2018-11-27T09:03:35.854Z,78.43
2018-11-27T09:04:35.984Z,78.43
2018-11-27T09:05:36.113Z,79.47
2018-11-27T09:06:36.240Z,78.91
2018-11-27T09:07:36.406Z,78.81
2018-11-27T09:08:36.528Z,78.43
2018-11-27T09:09:36.661Z,79.28
2018-11-27T09:10:36.794Z,79.57
2018-11-27T09:11:36.948Z,79.66
2018-11-27T09:12:37.079Z,79.57
2018-11-27T09:13:37.252Z,80.04
2018-11-27T09:16:09.871Z,80.33
2018-11-27T09:17:10.005Z,79.00
2018-11-27T09:18:10.175Z,78.72
2018-11-27T09:19:10.314Z,77.96
2018-11-27T09:20:10.446Z,77.58
2018-11-27T09:21:10.575Z,77.67
2018-11-27T09:22:12.696Z,77.96
2018-11-27T09:23:10.892Z,78.15
2018-11-27T09:24:11.014Z,78.05
2018-11-27T09:25:11.145Z,79.28
2018-11-27T09:26:11.273Z,79.85
2018-11-27T09:27:11.422Z,78.47
2018-11-27T09:28:11.659Z,78.56
2018-11-27T09:29:11.664Z,78.66
2018-11-27T09:30:11.795Z,78.66
2018-11-27T09:31:11.953Z,78.09
2018-11-27T09:32:12.078Z,76.86
2018-11-27T09:33:12.210Z,76.39
2018-11-27T09:34:12.352Z,76.67
2018-11-27T09:35:12.477Z,76.76
2018-11-27T09:36:12.610Z,75.53
2018-11-27T09:37:12.740Z,75.62
2018-11-27T09:38:12.902Z,75.81
2018-11-27T09:39:13.026Z,75.43
2018-11-27T09:40:13.210Z,75.24
2018-11-27T09:41:13.319Z,75.43
2018-11-27T09:42:13.505Z,75.05
2018-11-27T09:43:13.509Z,75.34
2018-11-27T09:44:13.634Z,75.72
2018-11-27T09:45:13.789Z,75.81
2018-11-27T09:46:13.918Z,75.81
2018-11-27T09:47:14.052Z,75.81
2018-11-27T09:48:14.172Z,75.24
2018-11-27T09:49:14.306Z,75.05
2018-11-27T09:50:14.447Z,75.24
2018-11-27T09:51:14.576Z,75.24
2018-11-27T09:52:14.706Z,75.53
2018-11-27T09:53:14.858Z,75.34
2018-11-27T09:54:14.986Z,75.15
2018-11-27T09:55:15.115Z,75.05
2018-11-27T09:56:15.290Z,75.24
2018-11-27T09:57:15.433Z,75.43
2018-11-27T09:58:15.559Z,75.53
2018-11-27T09:59:15.706Z,75.15
2018-11-27T10:00:15.845Z,75.15
2018-11-27T10:01:15.974Z,75.15
2018-11-27T10:02:16.110Z,74.96
2018-11-27T10:03:16.238Z,75.24
2018-11-27T10:04:16.383Z,75.05
2018-11-27T10:05:16.513Z,75.15
2018-11-27T10:06:16.645Z,74.68
2018-11-27T10:07:16.770Z,74.83
2018-11-27T10:08:16.912Z,74.68
2018-11-27T10:09:17.152Z,74.49
2018-11-27T10:10:17.173Z,74.49
2018-11-27T10:11:17.295Z,75.15
2018-11-27T10:12:17.431Z,75.24
2018-11-27T10:13:17.558Z,74.96
2018-11-27T10:14:17.689Z,75.05
2018-11-27T10:15:17.819Z,74.77
2018-11-27T10:16:17.968Z,74.58
2018-11-27T10:17:18.088Z,74.49
2018-11-27T10:18:18.213Z,74.77
2018-11-27T10:19:18.342Z,74.30
2018-11-27T10:20:18.494Z,74.30
2018-11-27T10:21:18.619Z,74.11
2018-11-27T10:22:18.745Z,74.30
2018-11-27T10:23:18.901Z,74.30
2018-11-27T10:24:19.024Z,74.87
2018-11-27T10:25:19.155Z,74.39
2018-11-27T10:26:19.292Z,74.30
2018-11-27T10:27:19.453Z,73.92
2018-11-27T10:28:19.585Z,73.72
2018-11-27T10:29:19.714Z,73.44
2018-11-27T10:30:19.844Z,72.97
2018-11-27T10:31:20.008Z,72.97
2018-11-27T10:32:20.180Z,73.16
2018-11-27T10:33:20.305Z,73.54
2018-11-27T10:34:20.436Z,72.97
2018-11-27T10:35:20.585Z,72.78
2018-11-27T10:36:20.714Z,72.21
2018-11-27T10:37:20.872Z,71.92
2018-11-27T10:38:21.009Z,72.02
2018-11-27T10:39:21.139Z,72.02
2018-11-27T10:40:21.266Z,71.83
2018-11-27T10:41:21.405Z,72.25
2018-11-27T10:42:21.571Z,71.20
2018-11-27T10:43:21.706Z,71.39
2018-11-27T10:44:21.833Z,71.48
2018-11-27T10:45:21.972Z,71.30
2018-11-27T10:46:22.095Z,71.30
2018-11-27T10:47:22.228Z,71.96
2018-11-27T10:48:22.360Z,71.48
2018-11-27T10:49:22.511Z,71.77
2018-11-27T10:50:22.720Z,71.39
2018-11-27T10:51:22.767Z,71.92
2018-11-27T10:52:22.896Z,71.96
2018-11-27T10:53:23.025Z,71.73
2018-11-27T10:54:23.156Z,71.64
2018-11-27T10:55:23.285Z,71.73
2018-11-27T10:56:23.430Z,71.67
2018-11-27T10:57:23.557Z,71.36
2018-11-27T10:58:23.695Z,72.21
2018-11-27T10:59:23.821Z,71.45
2018-11-27T11:00:24.000Z,71.73
2018-11-27T11:01:24.029Z,71.55
2018-11-27T11:02:24.162Z,71.92
2018-11-27T11:03:24.293Z,72.11
2018-11-27T11:04:24.445Z,72.25
2018-11-27T11:05:24.545Z,72.21
2018-11-27T11:06:24.676Z,72.78
2018-11-27T11:07:24.819Z,72.11
2018-11-27T11:08:24.938Z,72.06
2018-11-27T11:09:25.066Z,71.30
2018-11-27T11:10:25.200Z,71.17
2018-11-27T11:11:25.331Z,71.39
2018-11-27T11:12:25.469Z,71.26
2018-11-27T11:13:25.720Z,71.73
2018-11-27T11:14:25.718Z,71.67
2018-11-27T11:15:25.847Z,71.39
2018-11-27T11:16:25.977Z,71.01
2018-11-27T11:17:26.133Z,70.54
2018-11-27T11:18:26.261Z,70.25
2018-11-27T11:19:26.389Z,70.25
2018-11-27T11:20:26.516Z,69.87
2018-11-27T11:21:26.650Z,69.30
2018-11-27T11:22:26.786Z,69.40
2018-11-27T11:23:26.916Z,69.21
2018-11-27T11:24:27.046Z,70.06
2018-11-27T11:25:27.178Z,70.44
2018-11-27T11:26:27.307Z,69.96
2018-11-27T11:27:27.437Z,69.96
2018-11-27T11:28:27.596Z,70.63
2018-11-27T11:29:27.703Z,70.54
2018-11-27T11:30:27.847Z,70.15
2018-11-27T11:31:27.965Z,70.73
2018-11-27T11:32:28.101Z,70.73
2018-11-27T11:33:28.233Z,71.11
2018-11-27T11:34:28.370Z,71.77
2018-11-27T11:35:28.503Z,70.92
2018-11-27T11:36:28.630Z,71.07
2018-11-27T11:37:28.784Z,71.07
2018-11-27T11:38:28.923Z,71.67
2018-11-27T11:39:29.054Z,71.26
2018-11-27T11:40:29.184Z,72.06
2018-11-27T11:41:31.399Z,72.44
2018-11-27T11:42:29.448Z,72.44
2018-11-27T11:43:29.577Z,71.73
2018-11-27T11:44:29.701Z,70.59
2018-11-27T11:45:29.871Z,71.17
2018-11-27T11:46:30.000Z,71.17
2018-11-27T11:47:30.130Z,71.55
2018-11-27T11:48:30.266Z,71.36
2018-11-27T11:49:30.391Z,70.78
2018-11-27T11:50:30.525Z,70.50
2018-11-27T11:51:30.647Z,70.78
2018-11-27T11:52:31.862Z,71.20
2018-11-27T11:53:30.908Z,71.55
2018-11-27T11:54:31.039Z,71.96
2018-11-27T11:55:31.166Z,71.77
2018-11-27T11:56:31.304Z,71.39
2018-11-27T11:57:31.437Z,71.86
2018-11-27T11:58:31.567Z,71.01
2018-11-27T11:59:31.699Z,71.48
2018-11-27T12:00:31.847Z,70.82
2018-11-27T12:01:31.979Z,71.01
2018-11-27T12:02:34.021Z,71.48
2018-11-27T12:03:32.273Z,71.67
2018-11-27T12:04:32.396Z,71.83
2018-11-27T12:05:32.525Z,71.86
2018-11-27T12:06:32.657Z,71.83
2018-11-27T12:07:32.791Z,71.58
2018-11-27T12:08:32.919Z,71.20
2018-11-27T12:09:33.045Z,70.82
2018-11-27T12:10:33.182Z,71.01
2018-11-27T12:11:33.312Z,71.39
2018-11-27T12:12:33.452Z,71.30
2018-11-27T12:13:33.578Z,70.92
2018-11-27T12:14:33.713Z,70.63
2018-11-27T12:15:33.843Z,70.63
2018-11-27T12:16:33.976Z,71.01
2018-11-27T12:17:34.109Z,70.92
2018-11-27T12:18:34.240Z,70.25
2018-11-27T12:19:34.372Z,70.54
2018-11-27T12:20:34.492Z,70.73
2018-11-27T12:21:34.638Z,70.92
2018-11-27T12:22:34.764Z,70.82
2018-11-27T12:23:34.897Z,70.69
2018-11-27T12:24:35.031Z,70.54
2018-11-27T12:25:35.166Z,70.82
2018-11-27T12:26:35.373Z,70.54
2018-11-27T12:27:35.378Z,70.35
2018-11-27T12:28:35.516Z,70.15
2018-11-27T12:29:35.653Z,70.44
2018-11-27T12:30:35.781Z,70.44
2018-11-27T12:31:35.911Z,70.35
2018-11-27T12:32:36.042Z,70.03
2018-11-27T12:33:36.173Z,70.03
2018-11-27T12:34:36.302Z,70.06
2018-11-27T12:35:36.430Z,70.35
2018-11-27T12:36:36.560Z,70.92
2018-11-27T12:37:36.736Z,70.25
2018-11-27T12:38:36.854Z,70.25
2018-11-27T12:39:36.985Z,69.96
2018-11-27T12:40:37.110Z,69.93
2018-11-27T12:41:37.265Z,69.30
2018-11-27T12:42:37.397Z,69.65
2018-11-27T12:43:37.533Z,69.27
2018-11-27T12:44:37.659Z,69.87
2018-11-27T12:45:37.799Z,69.87
2018-11-27T12:46:37.932Z,69.68
2018-11-27T12:47:38.067Z,69.49
2018-11-27T12:48:38.212Z,69.30
2018-11-27T12:49:38.336Z,69.49
2018-11-27T12:50:38.700Z,69.49
2018-11-27T12:51:38.595Z,69.40
2018-11-27T12:52:38.765Z,69.40
2018-11-27T12:53:38.881Z,69.11
2018-11-27T12:54:39.011Z,69.87
2018-11-27T12:55:39.145Z,69.78